Time;durP1;ratioP1;P1;durP2;ratioP2;P2;SDS_P1;SDS_P2;PMS_P1;PMS_P2;Temp;Humidity;BMP_temperature;BMP_pressure;BME280_temperature;BME280_humidity;BME280_pressure;Samples;Min_cycle;Max_cycle;Signal;HPM_P1;HPM_P2
2022/11/11 00:00:04;;;;;;;11.88;7.10;;;11.90;99.90;;;;;;5091786;28;20044;-64
2022/11/11 00:02:31;;;;;;;10.95;6.68;;;11.90;99.90;;;;;;5090131;28;20048;-65
2022/11/11 00:04:58;;;;;;;16.50;6.38;;;11.90;99.90;;;;;;5090439;28;20128;-64
2022/11/11 00:07:26;;;;;;;12.55;6.75;;;11.90;99.90;;;;;;5090533;28;20496;-66
2022/11/11 00:09:53;;;;;;;11.10;6.22;;;11.90;99.90;;;;;;5090030;28;20453;-65
2022/11/11 00:12:20;;;;;;;13.93;7.15;;;11.90;99.90;;;;;;5088120;28;20051;-65
2022/11/11 00:14:47;;;;;;;17.08;7.47;;;11.90;99.90;;;;;;5090345;28;20048;-65
2022/11/11 00:25:28;;;;;;;13.10;7.30;;;11.80;99.90;;;;;;5090230;28;20044;-66
2022/11/11 00:27:55;;;;;;;15.15;7.80;;;11.80;99.90;;;;;;5090905;28;20094;-66
2022/11/11 00:30:22;;;;;;;11.13;7.28;;;11.80;99.90;;;;;;5088461;28;20560;-65
2022/11/11 00:32:49;;;;;;;18.92;7.22;;;11.80;99.90;;;;;;5089109;28;20426;-65
2022/11/11 00:38:08;;;;;;;13.60;6.75;;;11.70;99.90;;;;;;5088165;28;20124;-66
2022/11/11 00:40:35;;;;;;;11.95;7.75;;;11.70;99.90;;;;;;5089977;28;20489;-65
2022/11/11 00:43:02;;;;;;;16.17;7.75;;;11.80;99.90;;;;;;5089220;28;20118;-65
2022/11/11 00:45:29;;;;;;;15.40;7.45;;;11.90;99.90;;;;;;5089965;28;20048;-66
2022/11/11 00:50:58;;;;;;;14.68;7.82;;;11.80;99.90;;;;;;5089686;28;20052;-66
2022/11/11 00:53:28;;;;;;;13.95;7.70;;;11.80;99.90;;;;;;5090895;28;20376;-65
2022/11/11 00:55:56;;;;;;;17.75;8.10;;;11.80;99.90;;;;;;5090574;28;20114;-65
2022/11/11 00:58:24;;;;;;;15.40;8.32;;;11.80;99.90;;;;;;5090580;28;20044;-65
2022/11/11 01:00:52;;;;;;;16.55;7.43;;;11.80;99.90;;;;;;5089749;28;20106;-66
2022/11/11 01:03:19;;;;;;;21.13;9.75;;;11.80;99.90;;;;;;5090620;28;20056;-65
2022/11/11 01:05:47;;;;;;;16.27;7.97;;;11.80;99.90;;;;;;5094270;28;20052;-65
2022/11/11 01:08:13;;;;;;;11.40;7.85;;;11.80;99.90;;;;;;5093973;28;20040;-65
2022/11/11 01:10:42;;;;;;;14.40;7.28;;;11.90;99.90;;;;;;5091362;28;20101;-65
2022/11/11 01:13:16;;;;;;;14.30;7.53;;;11.80;99.90;;;;;;5093110;28;20105;-64
2022/11/11 01:15:44;;;;;;;15.48;7.85;;;11.80;99.90;;;;;;5093700;28;20048;-65
2022/11/11 01:18:13;;;;;;;14.65;8.25;;;11.80;99.90;;;;;;5093647;28;20146;-65
2022/11/11 01:20:41;;;;;;;15.77;8.75;;;11.80;99.90;;;;;;5090532;28;20056;-66
2022/11/11 01:23:10;;;;;;;14.25;8.45;;;11.90;99.90;;;;;;5094548;28;20188;-64
2022/11/11 01:25:38;;;;;;;19.00;8.98;;;11.80;99.90;;;;;;5091484;28;20040;-65
2022/11/11 01:28:07;;;;;;;15.38;8.10;;;11.80;99.90;;;;;;5093782;28;20491;-64
2022/11/11 01:30:36;;;;;;;12.80;8.00;;;11.80;99.90;;;;;;5093530;28;20105;-65
2022/11/11 01:33:03;;;;;;;17.48;8.82;;;11.80;99.90;;;;;;5091107;28;20051;-65
2022/11/11 01:35:30;;;;;;;14.63;8.13;;;11.80;99.90;;;;;;5092521;28;20052;-65
2022/11/11 01:37:57;;;;;;;13.60;7.55;;;11.80;99.90;;;;;;5094017;28;20094;-64
2022/11/11 01:40:24;;;;;;;14.43;8.13;;;11.80;99.90;;;;;;5093039;28;20048;-66
2022/11/11 01:42:52;;;;;;;13.02;8.05;;;11.70;99.90;;;;;;5093599;28;20047;-65
2022/11/11 01:45:48;;;;;;;15.75;7.30;;;11.70;99.90;;;;;;5093304;28;20423;-66
2022/11/11 01:51:34;;;;;;;13.95;7.82;;;11.80;99.90;;;;;;5094217;28;20512;-65
2022/11/11 01:54:04;;;;;;;16.38;8.20;;;11.80;99.90;;;;;;5091922;28;20051;-65
2022/11/11 01:56:31;;;;;;;;;;;11.70;99.90;;;;;;5092775;28;20467;-65
2022/11/11 01:59:02;;;;;;;17.13;8.38;;;11.80;99.90;;;;;;5092713;28;19927;-65
2022/11/11 02:01:30;;;;;;;15.18;8.55;;;11.80;99.90;;;;;;5094226;28;20051;-65
2022/11/11 02:06:44;;;;;;;15.00;7.60;;;11.80;99.90;;;;;;5091983;28;20056;-64
2022/11/11 02:09:11;;;;;;;16.77;8.00;;;11.70;99.90;;;;;;5091487;28;20113;-66
2022/11/11 02:14:41;;;;;;;30.38;7.82;;;11.80;99.90;;;;;;5093844;28;20043;-65
2022/11/11 02:17:13;;;;;;;14.80;8.30;;;11.70;99.90;;;;;;5091995;28;20048;-65
2022/11/11 02:19:46;;;;;;;15.63;8.13;;;11.70;99.90;;;;;;5090775;28;20080;-64
2022/11/11 02:22:18;;;;;;;16.63;8.63;;;11.80;99.90;;;;;;5093560;28;20048;-65
2022/11/11 02:24:46;;;;;;;17.38;8.63;;;11.80;99.90;;;;;;5090916;28;20040;-65
2022/11/11 02:27:17;;;;;;;20.73;9.38;;;11.80;99.90;;;;;;5092630;28;20502;-64
2022/11/11 02:29:47;;;;;;;19.60;8.70;;;11.80;99.90;;;;;;5092301;28;20040;-65
2022/11/11 02:32:14;;;;;;;13.98;7.90;;;11.80;99.90;;;;;;5091352;28;20491;-64
2022/11/11 02:34:40;;;;;;;18.27;9.00;;;11.80;99.90;;;;;;5093654;28;20450;-65
2022/11/11 02:37:09;;;;;;;17.27;8.35;;;11.80;99.90;;;;;;5091538;28;20438;-64
2022/11/11 02:39:42;;;;;;;15.30;8.60;;;11.20;99.90;;;;;;5091222;28;20051;-64
2022/11/11 02:42:13;;;;;;;17.35;9.30;;;11.70;99.90;;;;;;5091873;28;20056;-65
2022/11/11 02:44:40;;;;;;;15.57;8.55;;;11.70;99.90;;;;;;5092278;28;20395;-65
2022/11/11 02:47:08;;;;;;;17.58;9.40;;;11.70;99.90;;;;;;5092965;28;20048;-64
2022/11/11 02:49:35;;;;;;;14.65;9.15;;;11.70;99.90;;;;;;5091780;28;20051;-64
2022/11/11 02:52:02;;;;;;;19.67;10.25;;;11.70;99.90;;;;;;5092412;28;20519;-65
2022/11/11 02:54:28;;;;;;;17.17;9.93;;;11.70;99.90;;;;;;5091787;28;20136;-64
2022/11/11 02:57:08;;;;;;;21.10;10.73;;;11.70;99.90;;;;;;5091388;28;20479;-65
2022/11/11 02:59:37;;;;;;;21.65;10.48;;;11.60;99.90;;;;;;5092247;28;20055;-65
2022/11/11 03:02:05;;;;;;;18.90;10.57;;;11.60;99.90;;;;;;5092848;28;20055;-65
2022/11/11 03:04:32;;;;;;;20.83;10.63;;;11.60;99.90;;;;;;5091653;28;20059;-64
2022/11/11 03:06:59;;;;;;;18.67;10.60;;;11.50;99.90;;;;;;5088953;28;20516;-65
2022/11/11 03:09:26;;;;;;;20.90;11.35;;;11.50;99.90;;;;;;5091758;28;20043;-65
2022/11/11 03:11:53;;;;;;;16.88;10.73;;;11.50;99.90;;;;;;5090854;28;20048;-65
2022/11/11 03:14:20;;;;;;;21.70;12.48;;;11.40;99.90;;;;;;5091803;28;20056;-64
2022/11/11 03:19:32;;;;;;;18.15;12.18;;;11.40;99.90;;;;;;5089880;28;20048;-64
2022/11/11 03:22:00;;;;;;;23.98;13.27;;;11.40;99.90;;;;;;5087678;28;20051;-64
2022/11/11 03:25:36;;;;;;;20.02;12.20;;;11.40;99.90;;;;;;5091014;28;20055;-64
2022/11/11 03:27:14;;;;;;;18.60;13.50;;;11.30;99.90;;;;;;5090074;28;20135;-65
2022/11/11 03:29:42;;;;;;;19.83;12.85;;;11.30;99.90;;;;;;5091536;28;20491;-64
2022/11/11 03:32:10;;;;;;;23.58;13.15;;;11.30;99.90;;;;;;5092190;28;20074;-65
2022/11/11 03:34:37;;;;;;;26.52;14.02;;;11.30;99.90;;;;;;5090381;28;20044;-65
2022/11/11 03:39:49;;;;;;;26.25;14.35;;;11.30;99.90;;;;;;5091003;28;20051;-64
2022/11/11 03:42:16;;;;;;;25.67;13.57;;;11.30;99.90;;;;;;5089920;28;20093;-64
2022/11/11 03:44:43;;;;;;;21.40;14.20;;;11.20;99.90;;;;;;5090862;28;20044;-65
2022/11/11 03:47:11;;;;;;;27.15;16.27;;;11.20;99.90;;;;;;5090824;28;20101;-65
2022/11/11 03:49:38;;;;;;;26.08;14.68;;;11.20;99.90;;;;;;5091286;28;20059;-65
2022/11/11 03:52:05;;;;;;;26.42;14.10;;;11.20;99.90;;;;;;5091105;28;20052;-64
2022/11/11 03:54:32;;;;;;;22.15;13.25;;;11.20;99.90;;;;;;5090515;28;20058;-66
2022/11/11 03:59:40;;;;;;;25.95;15.25;;;11.10;99.90;;;;;;5087340;28;20093;-64
2022/11/11 04:10:30;;;;;;;23.65;14.90;;;11.10;99.90;;;;;;5091404;28;20086;-65
2022/11/11 04:23:53;;;;;;;24.27;15.18;;;11.10;99.90;;;;;;5090283;28;20276;-64
2022/11/11 04:26:20;;;;;;;21.20;15.75;;;11.10;99.90;;;;;;5091789;28;20048;-65
2022/11/11 04:31:31;;;;;;;23.83;15.45;;;11.10;99.90;;;;;;5089949;28;20123;-65
2022/11/11 04:33:57;;;;;;;26.17;15.43;;;11.10;99.90;;;;;;5089865;28;20492;-65
2022/11/11 04:36:25;;;;;;;27.52;16.13;;;11.10;99.90;;;;;;5090543;28;20036;-65
2022/11/11 04:41:37;;;;;;;27.20;16.55;;;11.10;99.90;;;;;;5094657;28;20392;-64
2022/11/11 04:46:49;;;;;;;27.10;16.05;;;11.10;99.90;;;;;;5092980;28;20048;-65
2022/11/11 04:49:16;;;;;;;27.35;16.42;;;11.00;99.90;;;;;;5094304;28;20047;-66
2022/11/11 04:54:28;;;;;;;29.42;17.27;;;11.10;99.90;;;;;;5095412;28;20051;-66
2022/11/11 04:56:54;;;;;;;23.73;16.90;;;11.10;99.90;;;;;;5093755;28;20117;-66
2022/11/11 04:59:21;;;;;;;27.48;17.08;;;11.10;99.90;;;;;;5094856;28;20040;-65
2022/11/11 05:04:32;;;;;;;28.35;17.85;;;11.10;99.90;;;;;;5094992;28;20404;-65
2022/11/11 05:09:44;;;;;;;25.50;16.08;;;11.00;99.90;;;;;;5093882;28;20040;-65
2022/11/11 05:12:11;;;;;;;27.05;16.88;;;11.00;99.90;;;;;;5094759;28;20089;-66
2022/11/11 05:22:55;;;;;;;27.90;17.73;;;11.00;99.90;;;;;;5080190;28;20056;-65
2022/11/11 05:25:29;;;;;;;26.00;17.00;;;10.90;99.90;;;;;;5085206;28;20067;-65
2022/11/11 05:27:57;;;;;;;25.08;17.58;;;10.90;99.90;;;;;;5081400;28;20055;-65
2022/11/11 05:30:26;;;;;;;26.88;16.45;;;10.90;99.90;;;;;;5088400;28;20059;-65
2022/11/11 05:32:55;;;;;;;29.63;17.50;;;10.90;99.90;;;;;;5090888;28;20487;-65
2022/11/11 05:35:22;;;;;;;25.98;17.55;;;10.90;99.90;;;;;;5087970;28;20078;-64
2022/11/11 05:38:19;;;;;;;26.60;16.70;;;11.00;99.90;;;;;;5081422;28;20519;-65
2022/11/11 05:40:37;;;;;;;24.60;17.67;;;10.90;99.90;;;;;;5087327;28;20052;-65
2022/11/11 05:43:04;;;;;;;27.83;17.02;;;10.90;99.90;;;;;;5088622;28;20048;-65
2022/11/11 05:45:31;;;;;;;28.38;17.75;;;10.90;99.90;;;;;;5083575;28;20500;-65
2022/11/11 05:48:01;;;;;;;31.52;18.48;;;10.80;99.90;;;;;;5086604;28;20048;-65
2022/11/11 05:50:28;;;;;;;28.77;18.02;;;10.70;99.90;;;;;;5091109;28;20043;-65
2022/11/11 05:52:55;;;;;;;28.45;17.40;;;10.60;99.90;;;;;;5087952;28;20415;-64
2022/11/11 05:55:22;;;;;;;28.13;18.98;;;10.60;99.90;;;;;;5083478;28;20551;-64
2022/11/11 05:57:51;;;;;;;28.25;17.65;;;10.60;99.90;;;;;;5085046;28;20058;-65
2022/11/11 06:00:18;;;;;;;38.90;17.98;;;10.50;99.90;;;;;;5088379;28;20051;-64
2022/11/11 06:02:45;;;;;;;28.83;19.25;;;10.40;99.90;;;;;;5088953;28;20127;-65
2022/11/11 06:05:12;;;;;;;33.38;17.92;;;10.40;99.90;;;;;;5087381;28;20044;-64
2022/11/11 06:07:40;;;;;;;29.45;18.33;;;10.40;99.90;;;;;;5082397;28;20403;-65
2022/11/11 06:13:04;;;;;;;29.45;17.25;;;10.50;99.90;;;;;;5088964;28;20040;-65
2022/11/11 06:15:31;;;;;;;28.95;18.67;;;10.50;99.90;;;;;;5086821;28;20051;-64
2022/11/11 06:17:58;;;;;;;32.85;17.15;;;10.60;99.90;;;;;;5084843;28;20087;-65
2022/11/11 06:20:25;;;;;;;32.25;16.88;;;10.60;99.90;;;;;;5087355;28;20048;-65
2022/11/11 06:22:58;;;;;;;27.10;17.95;;;10.70;99.90;;;;;;5085177;28;20055;-64
2022/11/11 06:28:11;;;;;;;26.60;16.80;;;10.90;99.90;;;;;;5080928;28;20048;-65
2022/11/11 06:30:39;;;;;;;29.42;16.95;;;10.90;99.90;;;;;;5083519;28;20376;-65
2022/11/11 06:33:06;;;;;;;27.55;17.15;;;11.00;99.90;;;;;;5086746;28;20059;-64
2022/11/11 06:35:34;;;;;;;28.25;16.65;;;11.10;99.90;;;;;;5088197;28;20136;-65
2022/11/11 06:38:01;;;;;;;32.33;16.73;;;11.10;99.90;;;;;;5084833;28;20083;-64
2022/11/11 06:40:29;;;;;;;28.13;16.73;;;11.10;99.90;;;;;;5082432;28;20442;-65
2022/11/11 06:42:56;;;;;;;23.63;16.48;;;11.10;99.90;;;;;;5086749;28;20105;-65
2022/11/11 06:45:26;;;;;;;31.33;16.08;;;11.20;99.90;;;;;;5080051;28;20507;-65
2022/11/11 06:47:53;;;;;;;31.00;18.10;;;11.10;99.90;;;;;;5083271;28;20056;-64
2022/11/11 06:50:20;;;;;;;30.05;17.42;;;11.20;99.90;;;;;;5089078;28;20051;-64
2022/11/11 06:52:47;;;;;;;30.23;18.05;;;11.20;99.90;;;;;;5081801;28;20063;-65
2022/11/11 06:55:14;;;;;;;30.27;17.13;;;11.10;99.90;;;;;;5083414;28;20040;-65
2022/11/11 06:57:41;;;;;;;30.27;17.85;;;11.20;99.90;;;;;;5081636;28;20052;-65
2022/11/11 07:00:09;;;;;;;33.22;19.35;;;11.10;99.90;;;;;;5089371;28;20105;-64
2022/11/11 07:02:38;;;;;;;31.05;17.20;;;11.10;99.90;;;;;;5084103;28;20049;-65
2022/11/11 07:05:06;;;;;;;29.13;17.80;;;11.10;99.90;;;;;;5082138;28;20058;-65
2022/11/11 07:07:32;;;;;;;27.80;16.52;;;11.10;99.90;;;;;;5086585;28;20053;-65
2022/11/11 07:10:00;;;;;;;28.33;17.02;;;11.10;99.90;;;;;;5085537;28;20040;-64
2022/11/11 07:12:27;;;;;;;28.08;16.30;;;11.10;99.90;;;;;;5085898;28;20404;-65
2022/11/11 07:14:54;;;;;;;26.00;17.75;;;11.10;99.90;;;;;;5090895;28;20143;-65
2022/11/11 07:17:20;;;;;;;28.08;18.52;;;11.10;99.90;;;;;;5091086;28;20048;-65
2022/11/11 07:19:49;;;;;;;30.67;17.75;;;11.10;99.90;;;;;;5090812;28;20048;-65
2022/11/11 07:22:16;;;;;;;29.75;19.30;;;11.20;99.90;;;;;;5089974;28;20047;-64
2022/11/11 07:24:42;;;;;;;25.70;16.65;;;11.10;99.90;;;;;;5091154;28;21408;-65
2022/11/11 07:27:09;;;;;;;28.45;17.67;;;11.10;99.90;;;;;;5090913;28;20075;-65
2022/11/11 07:29:36;;;;;;;27.33;18.50;;;11.10;99.90;;;;;;5090829;28;20056;-65
2022/11/11 07:32:03;;;;;;;29.63;18.42;;;11.10;99.90;;;;;;5091918;28;20051;-66
2022/11/11 07:34:30;;;;;;;28.30;17.90;;;11.10;99.90;;;;;;5090810;28;20040;-65
2022/11/11 07:36:58;;;;;;;33.33;19.85;;;11.10;99.90;;;;;;5090013;28;20070;-65
2022/11/11 07:39:25;;;;;;;29.17;17.65;;;11.10;99.90;;;;;;5090732;28;20450;-65
2022/11/11 07:41:52;;;;;;;29.17;17.65;;;11.10;99.90;;;;;;5090177;28;20047;-65
2022/11/11 07:44:19;;;;;;;29.48;17.90;;;11.10;99.90;;;;;;5089221;28;20086;-65
2022/11/11 07:46:45;;;;;;;31.50;17.13;;;11.20;99.90;;;;;;5091358;28;20043;-65
2022/11/11 07:49:12;;;;;;;28.05;17.35;;;11.20;99.90;;;;;;5090792;28;20048;-65
2022/11/11 07:51:39;;;;;;;31.08;17.77;;;11.20;99.90;;;;;;5088655;28;20044;-65
2022/11/11 07:54:08;;;;;;;28.15;17.92;;;11.30;99.90;;;;;;5090071;28;20040;-66
2022/11/11 07:56:34;;;;;;;32.78;17.33;;;11.20;99.90;;;;;;5089469;28;20052;-65
2022/11/11 07:59:01;;;;;;;26.50;17.33;;;11.20;99.90;;;;;;5091250;28;20047;-66
2022/11/11 08:01:28;;;;;;;29.58;17.83;;;11.20;99.90;;;;;;5088812;28;20048;-66
2022/11/11 08:03:55;;;;;;;25.27;16.92;;;11.30;99.90;;;;;;5088681;28;20411;-65
2022/11/11 08:06:23;;;;;;;28.13;16.65;;;11.30;99.90;;;;;;5090264;28;20048;-65
2022/11/11 08:08:50;;;;;;;32.67;17.90;;;11.30;99.90;;;;;;5087125;28;20415;-65
2022/11/11 08:13:39;;;;;;;25.98;16.52;;;11.30;99.90;;;;;;5090506;28;20044;-65
2022/11/11 08:14:04;;;;;;;27.85;18.08;;;11.30;99.90;;;;;;5092750;28;20440;-65
2022/11/11 08:16:31;;;;;;;28.40;17.42;;;11.30;99.90;;;;;;5093841;28;20071;-66
2022/11/11 08:18:58;;;;;;;26.45;16.85;;;11.30;99.90;;;;;;5093834;28;20117;-66
2022/11/11 08:21:26;;;;;;;27.08;17.20;;;11.30;99.90;;;;;;5093986;28;20449;-65
2022/11/11 08:23:53;;;;;;;27.67;16.95;;;11.30;99.90;;;;;;5093918;28;20059;-65
2022/11/11 08:26:22;;;;;;;25.83;16.70;;;11.30;99.90;;;;;;5091808;28;20056;-66
2022/11/11 08:28:49;;;;;;;28.65;17.48;;;11.40;99.90;;;;;;5095332;28;20435;-64
2022/11/11 08:31:16;;;;;;;33.08;17.05;;;11.30;99.90;;;;;;5093844;28;20044;-65
2022/11/11 08:33:43;;;;;;;33.17;16.50;;;11.40;99.90;;;;;;5094169;28;20048;-66
2022/11/11 08:36:10;;;;;;;31.05;16.50;;;11.30;99.90;;;;;;5092547;28;20040;-66
2022/11/11 08:38:38;;;;;;;31.00;16.48;;;11.40;99.90;;;;;;5090899;28;20082;-65
2022/11/11 08:41:06;;;;;;;28.60;18.10;;;11.30;99.90;;;;;;5094742;28;20047;-66
2022/11/11 08:43:35;;;;;;;23.63;16.67;;;11.30;99.90;;;;;;5094472;28;20048;-65
2022/11/11 08:46:03;;;;;;;25.90;16.00;;;11.40;99.90;;;;;;5094287;28;20387;-66
2022/11/11 08:48:31;;;;;;;31.05;18.48;;;11.40;99.90;;;;;;5093634;28;20491;-66
2022/11/11 08:50:58;;;;;;;25.20;17.00;;;11.40;99.90;;;;;;5091036;28;20051;-65
2022/11/11 08:53:26;;;;;;;26.20;16.05;;;11.30;99.90;;;;;;5094130;28;20056;-65
2022/11/11 08:55:54;;;;;;;28.30;15.85;;;11.40;99.90;;;;;;5094593;28;20062;-65
2022/11/11 08:58:21;;;;;;;23.73;15.02;;;11.40;99.90;;;;;;5091470;28;20519;-65
2022/11/11 09:00:49;;;;;;;30.30;16.40;;;11.30;99.90;;;;;;5093882;28;20131;-65
2022/11/11 09:03:16;;;;;;;28.52;16.55;;;11.30;99.90;;;;;;5094358;28;20056;-66
2022/11/11 09:05:43;;;;;;;24.98;15.02;;;11.30;99.90;;;;;;5092112;28;20043;-66
2022/11/11 09:08:10;;;;;;;29.83;17.13;;;11.30;99.90;;;;;;5093961;28;20108;-65
2022/11/11 09:10:37;;;;;;;22.38;15.07;;;11.30;99.90;;;;;;5094843;28;20051;-66
2022/11/11 09:13:04;;;;;;;29.02;15.98;;;11.30;99.90;;;;;;5092721;28;20048;-65
2022/11/11 09:15:32;;;;;;;25.65;16.13;;;11.30;99.90;;;;;;5094531;28;20051;-65
2022/11/11 09:18:02;;;;;;;30.88;17.80;;;11.40;99.90;;;;;;5091584;28;20059;-66
2022/11/11 09:20:29;;;;;;;24.15;15.68;;;11.40;99.90;;;;;;5092744;28;20471;-66
2022/11/11 09:22:56;;;;;;;25.33;16.48;;;11.40;99.90;;;;;;5093707;28;20423;-66
2022/11/11 09:25:23;;;;;;;27.33;16.67;;;11.40;99.90;;;;;;5093610;28;20047;-66
2022/11/11 09:27:57;;;;;;;24.05;15.38;;;11.40;99.90;;;;;;5094217;28;20040;-65
2022/11/11 09:30:25;;;;;;;23.23;15.93;;;11.40;99.90;;;;;;5093230;28;20048;-66
2022/11/11 09:32:52;;;;;;;24.95;16.10;;;11.40;99.90;;;;;;5093692;28;20377;-65
2022/11/11 09:35:21;;;;;;;24.30;16.35;;;11.40;99.90;;;;;;5093120;28;20047;-65
2022/11/11 09:37:55;;;;;;;22.65;15.00;;;11.40;99.90;;;;;;5093860;28;20403;-65
2022/11/11 09:40:24;;;;;;;23.48;14.88;;;11.40;99.90;;;;;;5091543;28;20055;-65
2022/11/11 09:43:04;;;;;;;30.42;15.60;;;11.40;99.90;;;;;;5092860;28;20048;-65
2022/11/11 09:45:44;;;;;;;21.80;14.32;;;11.30;99.90;;;;;;5092750;28;20043;-65
2022/11/11 09:48:31;;;;;;;25.42;15.23;;;11.30;99.90;;;;;;5091390;28;20056;-65
2022/11/11 09:51:01;;;;;;;26.48;16.83;;;11.30;99.90;;;;;;5090909;28;20048;-66
2022/11/11 09:53:33;;;;;;;22.92;14.00;;;11.30;99.90;;;;;;5091845;28;20051;-66
2022/11/11 09:56:02;;;;;;;23.15;14.77;;;11.20;99.90;;;;;;5092167;28;20048;-65
2022/11/11 09:58:34;;;;;;;26.35;15.20;;;11.20;99.90;;;;;;5092348;28;20047;-66
2022/11/11 10:01:07;;;;;;;26.90;15.77;;;11.20;99.90;;;;;;5093016;28;20040;-65
2022/11/11 10:03:40;;;;;;;22.48;15.23;;;11.20;99.90;;;;;;5088618;28;20548;-66
2022/11/11 10:06:15;;;;;;;26.58;16.15;;;11.20;99.90;;;;;;5089573;28;20044;-65
2022/11/11 10:08:48;;;;;;;26.52;16.30;;;11.20;99.90;;;;;;5092636;28;20434;-65
2022/11/11 10:11:22;;;;;;;28.85;15.60;;;11.20;99.90;;;;;;5093653;28;20401;-66
2022/11/11 10:13:49;;;;;;;23.27;15.60;;;11.20;99.90;;;;;;5093612;28;20052;-66
2022/11/11 10:16:27;;;;;;;24.67;15.38;;;11.20;99.90;;;;;;5093006;28;20054;-65
2022/11/11 10:19:09;;;;;;;29.92;14.65;;;11.20;99.90;;;;;;5090567;28;20052;-65
2022/11/11 10:21:46;;;;;;;24.63;14.88;;;11.10;99.90;;;;;;5092097;28;20495;-65
2022/11/11 10:24:17;;;;;;;21.25;14.27;;;11.20;99.90;;;;;;5089522;28;20044;-65
2022/11/11 10:26:46;;;;;;;24.25;14.88;;;11.20;99.90;;;;;;5093269;28;20415;-65
2022/11/11 10:29:17;;;;;;;26.77;15.45;;;11.20;99.90;;;;;;5072607;28;20044;-66
2022/11/11 10:31:48;;;;;;;25.33;14.98;;;11.20;99.90;;;;;;5059947;28;20055;-66
2022/11/11 10:34:19;;;;;;;23.95;15.93;;;11.30;99.90;;;;;;5093008;28;20707;-66
2022/11/11 10:36:49;;;;;;;;;;;11.30;99.90;;;;;;5092652;28;20552;-64
2022/11/11 10:39:23;;;;;;;23.23;14.93;;;11.30;99.90;;;;;;5091135;28;19931;-65
2022/11/11 10:41:52;;;;;;;24.45;15.57;;;11.20;99.90;;;;;;5093171;28;20278;-66
2022/11/11 10:44:21;;;;;;;24.63;14.93;;;11.20;99.90;;;;;;5089094;28;20060;-65
2022/11/11 10:46:58;;;;;;;23.98;15.38;;;11.30;99.90;;;;;;5092944;28;20098;-65
2022/11/11 10:49:30;;;;;;;23.60;15.48;;;11.30;99.90;;;;;;5092034;28;20063;-64
2022/11/11 10:52:05;;;;;;;22.40;15.00;;;11.30;99.90;;;;;;5091029;28;20052;-65
2022/11/11 10:54:38;;;;;;;24.42;14.68;;;11.30;99.90;;;;;;5088769;28;20054;-66
2022/11/11 10:57:13;;;;;;;24.13;13.45;;;11.40;99.90;;;;;;5092457;28;20051;-65
2022/11/11 10:59:46;;;;;;;23.35;13.30;;;11.40;99.90;;;;;;5092748;28;20044;-65
2022/11/11 11:02:21;;;;;;;21.45;13.75;;;11.40;99.90;;;;;;5090066;28;20093;-66
2022/11/11 11:04:52;;;;;;;21.00;13.48;;;11.50;99.90;;;;;;5087967;28;20051;-66
2022/11/11 11:07:27;;;;;;;21.38;13.48;;;11.50;99.90;;;;;;5086671;28;20048;-65
2022/11/11 11:09:58;;;;;;;23.08;13.48;;;11.50;99.90;;;;;;5090864;28;20480;-65
2022/11/11 11:12:29;;;;;;;23.13;14.45;;;11.50;99.90;;;;;;5091455;28;20105;-65
2022/11/11 11:15:02;;;;;;;21.35;13.27;;;11.60;99.90;;;;;;5091075;28;20075;-65
2022/11/11 11:17:36;;;;;;;19.25;12.77;;;11.60;99.90;;;;;;5092454;28;20051;-65
2022/11/11 11:20:13;;;;;;;21.13;13.75;;;11.60;99.90;;;;;;5073369;28;20052;-66
2022/11/11 11:22:50;;;;;;;21.02;14.25;;;11.70;99.90;;;;;;5084945;28;20076;-66
2022/11/11 11:25:18;;;;;;;21.40;12.95;;;11.80;99.90;;;;;;5078455;28;20052;-65
2022/11/11 11:27:46;;;;;;;20.10;13.75;;;11.70;99.90;;;;;;5086952;28;20878;-65
2022/11/11 11:30:15;;;;;;;22.42;12.73;;;11.60;99.90;;;;;;5084914;28;20139;-65
2022/11/11 11:32:43;;;;;;;21.00;14.43;;;11.70;99.90;;;;;;5086351;28;20082;-65
2022/11/11 11:35:28;;;;;;;20.52;13.35;;;11.70;99.90;;;;;;5087979;28;20051;-65
2022/11/11 11:37:57;;;;;;;22.80;13.85;;;11.70;99.90;;;;;;5083716;28;20114;-65
2022/11/11 11:40:24;;;;;;;19.92;13.25;;;11.70;99.90;;;;;;5078828;28;20048;-65
2022/11/11 11:42:51;;;;;;;21.45;13.98;;;11.70;99.90;;;;;;5085060;28;20078;-65
2022/11/11 11:45:23;;;;;;;19.75;13.55;;;11.70;99.90;;;;;;5090881;28;20137;-65
2022/11/11 11:48:06;;;;;;;22.42;14.00;;;11.80;99.90;;;;;;5089916;28;20101;-66
2022/11/11 11:50:42;;;;;;;21.02;13.65;;;11.80;99.90;;;;;;5088513;28;20051;-66
2022/11/11 11:53:30;;;;;;;22.45;13.35;;;11.80;99.90;;;;;;5089850;28;20510;-65
2022/11/11 11:56:07;;;;;;;18.70;12.70;;;11.90;99.90;;;;;;5090901;28;20483;-66
2022/11/11 11:58:49;;;;;;;20.45;12.77;;;11.90;99.90;;;;;;5090951;28;20047;-65
2022/11/11 12:01:22;;;;;;;20.73;13.18;;;11.90;99.90;;;;;;5090675;28;20055;-66
2022/11/11 12:04:13;;;;;;;18.95;12.02;;;11.90;99.90;;;;;;5091268;28;20052;-65
2022/11/11 12:06:54;;;;;;;19.13;13.40;;;11.80;99.90;;;;;;5091338;28;20048;-65
2022/11/11 12:09:35;;;;;;;21.08;12.75;;;11.80;99.90;;;;;;5090085;28;20507;-64
2022/11/11 12:12:09;;;;;;;23.05;13.05;;;11.80;99.90;;;;;;5091852;28;20377;-65
2022/11/11 12:14:53;;;;;;;20.85;13.60;;;11.80;99.90;;;;;;5090440;28;20507;-65
2022/11/11 12:17:30;;;;;;;17.50;12.52;;;11.80;99.90;;;;;;5089845;28;20450;-65
2022/11/11 12:20:07;;;;;;;19.85;12.63;;;11.80;99.90;;;;;;5090008;28;20060;-65
2022/11/11 12:22:48;;;;;;;17.98;12.02;;;11.80;99.90;;;;;;5087824;28;20380;-65
2022/11/11 12:25:29;;;;;;;20.15;12.38;;;11.80;99.90;;;;;;5091761;28;20048;-66
2022/11/11 12:28:02;;;;;;;18.67;12.05;;;11.80;99.90;;;;;;5091455;28;20052;-65
2022/11/11 12:30:30;;;;;;;17.80;12.35;;;11.80;99.90;;;;;;5090703;28;20112;-65
2022/11/11 12:33:20;;;;;;;17.92;12.07;;;11.80;99.90;;;;;;5090163;28;20040;-65
2022/11/11 12:36:00;;;;;;;23.13;13.68;;;11.80;99.90;;;;;;5089641;28;20047;-65
2022/11/11 12:38:43;;;;;;;;;;;11.80;99.90;;;;;;5091037;28;20052;-65
2022/11/11 12:41:20;;;;;;;17.10;12.00;;;11.80;99.90;;;;;;5090169;28;19927;-66
2022/11/11 12:43:55;;;;;;;21.38;13.15;;;11.80;99.90;;;;;;5089432;28;20098;-65
2022/11/11 12:46:30;;;;;;;19.20;12.63;;;11.80;99.90;;;;;;5090608;28;20449;-65
2022/11/11 12:49:07;;;;;;;19.13;12.43;;;11.80;99.90;;;;;;5087164;28;20452;-66
2022/11/11 12:51:51;;;;;;;20.33;12.13;;;11.70;99.90;;;;;;5088199;28;20408;-65
2022/11/11 12:54:31;;;;;;;16.40;11.05;;;11.70;99.90;;;;;;5089766;28;20044;-65
2022/11/11 12:57:08;;;;;;;16.83;10.70;;;11.70;99.90;;;;;;5089358;28;20048;-66
2022/11/11 12:59:50;;;;;;;18.85;12.32;;;11.70;99.90;;;;;;5091008;28;20047;-66
2022/11/11 13:02:36;;;;;;;21.00;12.40;;;11.70;99.90;;;;;;5090211;28;20056;-65
2022/11/11 13:05:10;;;;;;;21.02;13.48;;;11.70;99.90;;;;;;5091831;28;20553;-65
2022/11/11 13:08:01;;;;;;;23.63;14.18;;;11.70;99.90;;;;;;5093549;28;20082;-64
2022/11/11 13:10:36;;;;;;;21.55;13.85;;;11.70;99.90;;;;;;5093553;28;20048;-66
2022/11/11 13:13:20;;;;;;;19.58;13.15;;;11.70;99.90;;;;;;5092666;28;20496;-65
2022/11/11 13:15:48;;;;;;;20.58;12.85;;;11.60;99.90;;;;;;5093065;28;20511;-66
2022/11/11 13:18:20;;;;;;;20.77;14.20;;;11.60;99.90;;;;;;5093337;28;20048;-64
2022/11/11 13:20:53;;;;;;;19.67;11.95;;;11.50;99.90;;;;;;5093570;28;20048;-65
2022/11/11 13:23:20;;;;;;;17.60;12.88;;;11.50;99.90;;;;;;5093634;28;20048;-65
2022/11/11 13:25:50;;;;;;;15.63;11.65;;;11.60;99.90;;;;;;5092929;28;20068;-65
2022/11/11 13:28:22;;;;;;;22.80;13.50;;;11.50;99.90;;;;;;5093212;28;20052;-66
2022/11/11 13:31:01;;;;;;;18.58;13.48;;;11.60;99.90;;;;;;5093402;28;20465;-65
2022/11/11 13:33:38;;;;;;;18.95;12.48;;;11.50;99.90;;;;;;5093100;28;20040;-66
2022/11/11 13:36:08;;;;;;;21.58;12.57;;;11.50;99.90;;;;;;5092216;28;20062;-65
2022/11/11 13:38:39;;;;;;;24.02;13.38;;;11.50;99.90;;;;;;5094350;28;20433;-65
2022/11/11 13:41:08;;;;;;;19.20;13.73;;;11.50;99.90;;;;;;5092432;28;20484;-65
2022/11/11 13:43:42;;;;;;;19.95;12.20;;;11.50;99.90;;;;;;5092035;28;20040;-66
2022/11/11 13:46:35;;;;;;;19.52;12.93;;;11.40;99.90;;;;;;5092338;28;20044;-66
2022/11/11 13:49:05;;;;;;;20.48;13.60;;;11.40;99.90;;;;;;5091961;28;20052;-65
2022/11/11 13:51:37;;;;;;;20.45;13.18;;;11.40;99.90;;;;;;5091530;28;20464;-65
2022/11/11 13:54:07;;;;;;;18.58;12.13;;;11.40;99.90;;;;;;5093307;28;20055;-66
2022/11/11 13:56:39;;;;;;;21.08;12.82;;;11.50;99.90;;;;;;5094120;28;20040;-65
2022/11/11 13:59:16;;;;;;;22.65;14.52;;;11.60;99.90;;;;;;5092718;28;20051;-66
2022/11/11 14:01:43;;;;;;;26.02;14.43;;;11.50;99.90;;;;;;5092071;28;20044;-66
2022/11/11 14:04:11;;;;;;;22.63;14.30;;;11.50;99.90;;;;;;5092294;28;20474;-65
2022/11/11 14:06:54;;;;;;;27.55;14.57;;;11.60;99.90;;;;;;5092665;28;20051;-65